KOPL/OPL METAR and TAF weather

Enter ICAO airport designator
Station Type Date Time Source
KOPL METAR 2020/07/05 02:55 UTC NOAA

KOPL 050255Z AUTO 11005KT 10SM SCT050 27/23 A2988 RMK AO2 T02700229


Station Type Date Time Source
KOPL Decoded METAR 2020/07/05 02:55 UTC NOAA

Station name not available
Jul 04, 2020 - 10:55 PM EDT / 2020.07.05 0255 UTC
Wind: from the ESE (110 degrees) at 6 MPH (5 KT):0
Visibility: 10 mile(s):0
Sky conditions: partly cloudy
Temperature: 80.6 F (27.0 C)
Dew Point: 73.2 F (22.9 C)
Relative Humidity: 78%
Pressure (altimeter): 29.88 in. Hg (1011 hPa)
ob: KOPL 050255Z AUTO 11005KT 10SM SCT050 27/23 A2988 RMK AO2 T02700229
cycle: 3

Station Type Date Time Source
KOPL TAF UTC NOAA

Error!

Example: see airport list